Time;durP1;ratioP1;P1;durP2;ratioP2;P2;SDS_P1;SDS_P2;PMS_P1;PMS_P2;Temp;Humidity;BMP_temperature;BMP_pressure;BME280_temperature;BME280_humidity;BME280_pressure;Samples;Min_cycle;Max_cycle;Signal;HPM_P1;HPM_P2
2022/09/10 00:02:35;;;;;;;34.83;24.37;;;;;;;14.86;99.26;98716.41;2315655;77;21291;-81
2022/09/10 00:05:35;;;;;;;40.83;26.15;;;;;;;14.86;99.21;98713.78;2315536;77;20927;-82
2022/09/10 00:08:36;;;;;;;43.83;25.32;;;;;;;14.87;99.03;98707.64;2315981;77;20970;-83
2022/09/10 00:11:37;;;;;;;36.33;25.50;;;;;;;14.87;98.90;98699.77;2316190;77;21369;-81
2022/09/10 00:14:36;;;;;;;39.98;25.02;;;;;;;14.87;98.83;98698.89;2316581;77;20955;-82
2022/09/10 00:17:37;;;;;;;39.00;25.77;;;;;;;14.88;98.80;98704.58;2316364;77;20935;-82
2022/09/10 00:20:37;;;;;;;33.70;25.10;;;;;;;14.87;98.70;98706.77;2316682;77;20899;-82
2022/09/10 00:23:38;;;;;;;36.45;23.90;;;;;;;14.84;98.52;98698.91;2316660;77;21300;-83
2022/09/10 00:26:38;;;;;;;35.17;25.25;;;;;;;14.84;98.63;98703.73;2316320;77;20919;-82
2022/09/10 00:29:39;;;;;;;37.33;25.05;;;;;;;14.84;98.60;98708.11;2316462;77;20942;-81
2022/09/10 00:32:39;;;;;;;38.05;25.27;;;;;;;14.81;98.46;98702.44;2316532;77;20947;-82
2022/09/10 00:35:39;;;;;;;34.10;24.55;;;;;;;14.83;98.56;98700.67;2316419;77;20927;-81
2022/09/10 00:38:40;;;;;;;34.23;25.08;;;;;;;14.84;98.49;98699.78;2316543;77;20899;-82
2022/09/10 00:41:40;;;;;;;39.40;25.55;;;;;;;14.84;98.42;98700.23;2316147;77;20955;-82
2022/09/10 00:44:42;;;;;;;34.10;25.10;;;;;;;14.84;98.61;98702.41;2316589;77;20935;-81
2022/09/10 00:47:43;;;;;;;37.48;25.30;;;;;;;14.86;98.70;98702.41;2316194;77;20971;-81
2022/09/10 00:50:41;;;;;;;37.80;25.95;;;;;;;14.87;98.70;98694.51;2316252;77;20958;-82
2022/09/10 00:53:42;;;;;;;42.45;26.90;;;;;;;14.88;98.76;98688.81;2316567;77;20931;-81
2022/09/10 00:56:42;;;;;;;39.95;26.35;;;;;;;14.85;99.21;98690.14;2316571;77;21359;-81
2022/09/10 00:59:43;;;;;;;38.40;24.45;;;;;;;14.85;99.31;98684.89;2316350;77;20956;-82
2022/09/10 01:02:43;;;;;;;45.63;24.82;;;;;;;14.94;100.00;98683.50;2317521;77;20879;-82
2022/09/10 01:05:43;;;;;;;38.85;25.82;;;;;;;15.04;99.12;98690.87;2317528;77;21296;-83
2022/09/10 01:08:44;;;;;;;51.85;37.08;;;;;;;15.05;98.75;98685.59;2317276;77;20967;-82
2022/09/10 01:11:44;;;;;;;40.25;26.68;;;;;;;15.07;98.70;98689.09;2316841;77;21348;-82
2022/09/10 01:14:45;;;;;;;38.38;25.70;;;;;;;15.08;98.50;98687.33;2316926;77;20962;-82
2022/09/10 01:17:45;;;;;;;38.50;27.00;;;;;;;15.07;98.39;98677.25;2316790;77;21271;-82
2022/09/10 01:20:46;;;;;;;38.90;26.27;;;;;;;15.09;98.44;98677.24;2317181;77;20951;-82
2022/09/10 01:23:46;;;;;;;37.78;26.00;;;;;;;15.12;98.34;98668.02;2317229;77;20963;-82
2022/09/10 01:26:46;;;;;;;41.33;26.42;;;;;;;15.11;98.14;98671.09;2317413;77;20932;-82
2022/09/10 01:29:48;;;;;;;35.40;26.07;;;;;;;15.13;98.18;98670.62;2316842;77;21369;-82
2022/09/10 01:32:47;;;;;;;36.35;25.27;;;;;;;15.14;98.09;98665.80;2316705;77;20974;-82
2022/09/10 01:35:48;;;;;;;36.45;25.88;;;;;;;15.15;98.43;98660.09;2316772;77;20907;-82
2022/09/10 01:38:49;;;;;;;40.88;27.35;;;;;;;15.13;98.13;98659.24;2316684;77;21342;-82
2022/09/10 01:41:48;;;;;;;35.98;25.30;;;;;;;15.10;98.15;98660.14;2316624;77;20994;-82
2022/09/10 01:44:49;;;;;;;39.33;26.40;;;;;;;15.09;98.42;98657.08;2317190;77;20966;-82
2022/09/10 01:47:50;;;;;;;44.83;31.90;;;;;;;15.10;98.30;98654.88;2313821;77;21149;-82
2022/09/10 01:50:50;;;;;;;36.70;26.93;;;;;;;15.14;98.47;98651.34;2303500;77;20967;-82
2022/09/10 01:53:50;;;;;;;39.20;26.60;;;;;;;15.18;98.29;98653.05;2303401;77;21348;-83
2022/09/10 01:56:50;;;;;;;40.00;26.60;;;;;;;15.16;98.15;98648.70;2303345;77;20877;-82
2022/09/10 01:59:52;;;;;;;50.12;27.77;;;;;;;15.15;98.28;98643.88;2303616;77;21351;-82
2022/09/10 02:02:51;;;;;;;39.80;25.62;;;;;;;15.14;98.22;98649.16;2303548;77;20939;-81
2022/09/10 02:05:52;;;;;;;41.65;26.62;;;;;;;15.15;98.40;98643.02;2303370;77;20949;-83
2022/09/10 02:08:53;;;;;;;38.48;26.30;;;;;;;15.18;98.40;98636.41;2303342;77;20999;-82
2022/09/10 02:11:53;;;;;;;41.00;26.57;;;;;;;15.13;98.53;98632.51;2303179;77;20976;-81
2022/09/10 02:14:54;;;;;;;37.93;27.58;;;;;;;15.17;98.42;98626.78;2302734;77;20886;-82
2022/09/10 02:17:53;;;;;;;40.85;27.82;;;;;;;15.15;98.14;98621.53;2302171;77;20890;-81
2022/09/10 02:20:57;;;;;;;37.35;27.30;;;;;;;15.18;98.00;98631.15;2302414;77;20932;-82
2022/09/10 02:23:55;;;;;;;44.90;27.27;;;;;;;15.21;97.93;98636.37;2302340;77;20949;-82
2022/09/10 02:26:55;;;;;;;37.60;25.62;;;;;;;15.21;97.89;98629.36;2302239;77;21400;-83
2022/09/10 02:29:55;;;;;;;47.67;26.50;;;;;;;15.22;97.63;98631.10;2302330;77;20973;-81
2022/09/10 02:32:55;;;;;;;46.73;31.35;;;;;;;15.24;97.67;98626.70;2303129;77;20956;-81
2022/09/10 02:35:56;;;;;;;35.88;26.45;;;;;;;15.25;97.50;98617.05;2303600;77;20885;-81
2022/09/10 02:38:56;;;;;;;43.23;26.35;;;;;;;15.22;97.19;98619.27;2303398;77;20933;-82
2022/09/10 02:42:00;;;;;;;39.00;27.07;;;;;;;15.22;97.22;98624.53;2303290;77;20997;-82
2022/09/10 02:44:57;;;;;;;45.80;30.12;;;;;;;15.23;97.48;98639.42;2303373;77;20941;-82
2022/09/10 02:47:57;;;;;;;52.13;34.80;;;;;;;15.20;97.89;98665.74;2299668;77;21453;-82
2022/09/10 02:50:58;;;;;;;48.68;32.83;;;;;;;15.19;98.09;98658.73;2285151;78;20979;-83
2022/09/10 02:53:58;;;;;;;41.70;30.17;;;;;;;15.22;97.81;98653.89;2285228;78;20926;-82
2022/09/10 02:56:59;;;;;;;35.28;27.77;;;;;;;15.24;97.81;98639.84;2285339;78;20939;-82
2022/09/10 03:00:01;;;;;;;39.80;28.02;;;;;;;15.28;97.52;98645.50;2284874;78;20942;-80
2022/09/10 03:03:00;;;;;;;37.80;28.10;;;;;;;15.30;97.50;98646.36;2284524;78;20915;-81
2022/09/10 03:06:03;;;;;;;43.17;28.90;;;;;;;15.35;97.40;98645.44;2284372;78;20879;-81
2022/09/10 03:09:03;;;;;;;41.30;28.47;;;;;;;15.33;97.19;98634.94;2285082;78;20954;-81
2022/09/10 03:12:04;;;;;;;40.15;28.75;;;;;;;15.32;97.34;98630.56;2284736;78;21017;-81
2022/09/10 03:15:04;;;;;;;36.75;27.77;;;;;;;15.36;97.66;98637.53;2285271;78;21314;-81
2022/09/10 03:18:05;;;;;;;91.20;67.27;;;;;;;15.38;97.76;98634.89;2284498;78;20950;-81
2022/09/10 03:21:05;;;;;;;46.53;33.48;;;;;;;15.41;97.65;98625.20;2284538;78;20922;-82
2022/09/10 03:24:05;;;;;;;45.67;29.60;;;;;;;15.41;97.37;98625.20;2283916;78;20962;-82
2022/09/10 03:27:06;;;;;;;38.05;29.57;;;;;;;15.42;97.53;98632.20;2284144;78;21243;-83
2022/09/10 03:30:06;;;;;;;39.65;28.00;;;;;;;15.43;97.46;98638.34;2284550;78;20953;-83
2022/09/10 03:33:06;;;;;;;36.55;27.45;;;;;;;15.46;97.71;98635.23;2285353;78;20966;-83
2022/09/10 03:36:07;;;;;;;43.23;27.70;;;;;;;15.48;97.63;98632.58;2285430;78;20959;-84
2022/09/10 03:39:07;;;;;;;35.63;26.97;;;;;;;15.44;97.70;98622.54;2284977;78;20914;-85
2022/09/10 03:42:08;;;;;;;37.28;28.35;;;;;;;15.44;97.60;98621.67;2285117;78;21041;-85
2022/09/10 03:45:08;;;;;;;40.80;28.07;;;;;;;15.44;97.52;98620.36;2285753;78;20959;-84
2022/09/10 03:48:08;;;;;;;42.58;27.77;;;;;;;15.45;97.54;98615.08;2287620;77;20970;-84
2022/09/10 03:51:09;;;;;;;35.78;26.77;;;;;;;15.47;97.50;98625.58;2296104;77;21006;-84
2022/09/10 03:54:09;;;;;;;38.75;25.88;;;;;;;15.45;97.58;98616.84;2291531;78;20940;-84
2022/09/10 03:57:10;;;;;;;37.70;27.20;;;;;;;15.44;97.79;98618.59;2291134;78;20924;-85
2022/09/10 04:00:13;;;;;;;41.73;27.65;;;;;;;15.45;97.88;98615.08;2290724;78;21411;-86
2022/09/10 04:03:10;;;;;;;37.23;27.30;;;;;;;15.48;97.85;98611.54;2290589;78;20932;-84
2022/09/10 04:06:11;;;;;;;105.40;80.97;;;;;;;15.45;97.48;98607.63;2291068;78;20951;-85
2022/09/10 04:09:11;;;;;;;47.90;33.08;;;;;;;15.41;97.80;98608.55;2291710;78;20991;-85
2022/09/10 04:12:12;;;;;;;43.90;31.07;;;;;;;15.40;98.06;98602.86;2290462;78;20992;-84
2022/09/10 04:15:12;;;;;;;40.73;28.07;;;;;;;15.38;97.72;98590.17;2290016;78;20935;-84
2022/09/10 04:18:12;;;;;;;39.55;27.93;;;;;;;15.32;98.21;98591.56;2289595;78;20997;-84
2022/09/10 04:21:13;;;;;;;41.30;27.82;;;;;;;15.23;98.40;98596.48;2289461;78;21326;-84
2022/09/10 04:24:13;;;;;;;36.40;25.92;;;;;;;15.17;98.77;98596.10;2289026;78;20971;-84
2022/09/10 04:27:15;;;;;;;40.85;28.00;;;;;;;15.12;98.65;98592.65;2289513;78;20937;-85
2022/09/10 04:30:14;;;;;;;34.40;26.07;;;;;;;15.11;98.90;98592.22;2289776;78;21050;-85
2022/09/10 04:33:14;;;;;;;39.63;28.35;;;;;;;15.10;99.03;98585.66;2290116;78;21280;-84
2022/09/10 04:36:16;;;;;;;39.40;27.75;;;;;;;15.08;99.48;98578.23;2289719;78;21086;-84
2022/09/10 04:39:15;;;;;;;42.43;27.05;;;;;;;15.05;99.75;98580.45;2290093;78;20908;-84
2022/09/10 04:42:17;;;;;;;37.45;26.05;;;;;;;15.00;99.62;98582.26;2289721;78;20998;-83
2022/09/10 04:45:17;;;;;;;37.15;26.27;;;;;;;14.96;99.62;98578.79;2289637;78;21284;-83
2022/09/10 04:48:16;;;;;;;37.65;27.25;;;;;;;14.95;99.69;98585.38;2289467;78;20999;-84
2022/09/10 04:51:17;;;;;;;37.33;27.25;;;;;;;14.95;99.82;98582.75;2289520;78;20960;-84
2022/09/10 04:54:18;;;;;;;43.45;27.98;;;;;;;14.97;100.00;98594.12;2289865;78;21072;-84
2022/09/10 04:57:18;;;;;;;41.83;27.80;;;;;;;14.99;100.00;98597.59;2290441;78;21362;-85
2022/09/10 05:00:18;;;;;;;43.10;26.30;;;;;;;15.04;100.00;98608.07;2291391;77;21527;-84
2022/09/10 05:03:19;;;;;;;36.40;25.30;;;;;;;15.06;100.00;98594.47;2291449;78;20932;-84
2022/09/10 05:06:20;;;;;;;39.80;23.62;;;;;;;15.02;100.00;98580.93;2291863;78;20908;-84
2022/09/10 05:09:20;;;;;;;38.33;21.62;;;;;;;15.04;100.00;98581.34;2291053;78;20928;-85
2022/09/10 05:12:23;;;;;;;28.98;17.05;;;;;;;14.98;100.00;98577.02;2291356;78;20998;-84
2022/09/10 05:15:23;;;;;;;18.23;15.30;;;;;;;14.94;100.00;98581.88;2291634;78;20923;-83
2022/09/10 05:18:25;;;;;;;25.43;14.93;;;;;;;14.95;100.00;98564.35;2291349;78;20908;-83
2022/09/10 05:21:25;;;;;;;23.27;13.98;;;;;;;14.95;100.00;98567.84;2290554;78;21415;-84
2022/09/10 05:24:25;;;;;;;11.57;10.18;;;;;;;14.92;100.00;98569.64;2291166;78;20975;-84
2022/09/10 05:27:25;;;;;;;13.40;12.00;;;;;;;14.90;100.00;98568.78;2290994;78;20944;-83
2022/09/10 05:30:25;;;;;;;14.58;13.05;;;;;;;14.92;100.00;98569.19;2291129;78;21291;-83
2022/09/10 05:33:26;;;;;;;13.85;12.20;;;;;;;14.92;100.00;98572.27;2291035;78;20936;-84
2022/09/10 05:36:26;;;;;;;13.45;11.00;;;;;;;14.93;100.00;98584.08;2291321;78;20928;-83
2022/09/10 05:39:26;;;;;;;12.70;11.20;;;;;;;14.95;100.00;98585.38;2290778;78;20964;-82
2022/09/10 05:42:27;;;;;;;11.10;10.00;;;;;;;14.93;100.00;98574.01;2289316;78;20983;-83
2022/09/10 05:45:27;;;;;;;14.50;9.45;;;;;;;14.96;100.00;98580.55;2289406;78;20907;-82
2022/09/10 05:48:28;;;;;;;10.03;9.03;;;;;;;14.97;100.00;98575.72;2288299;77;20998;-84
2022/09/10 05:51:29;;;;;;;9.68;8.78;;;;;;;14.98;100.00;98582.27;2280186;77;20981;-83
2022/09/10 05:54:29;;;;;;;9.58;8.68;;;;;;;14.95;100.00;98589.32;2281251;78;20910;-81
2022/09/10 05:57:34;;;;;;;10.53;8.80;;;;;;;14.90;100.00;98590.67;2280866;77;21275;-81
2022/09/10 06:00:35;;;;;;;9.88;8.60;;;;;;;14.92;100.00;98590.22;2281156;78;20962;-82
2022/09/10 06:03:34;;;;;;;8.48;7.67;;;;;;;14.89;100.00;98586.31;2281070;78;20992;-83
2022/09/10 06:06:34;;;;;;;8.93;8.03;;;;;;;14.84;100.00;98578.04;2280910;78;21678;-81
2022/09/10 06:09:35;;;;;;;17.80;16.05;;;;;;;14.83;100.00;98581.11;2280102;78;20946;-81
2022/09/10 06:12:36;;;;;;;22.67;20.68;;;;;;;14.86;100.00;98581.52;2281116;78;21057;-81
2022/09/10 06:15:36;;;;;;;10.05;9.05;;;;;;;14.90;100.00;98584.55;2280108;78;21286;-82
2022/09/10 06:18:37;;;;;;;9.90;8.80;;;;;;;14.92;100.00;98597.23;2279729;78;20949;-81
2022/09/10 06:21:37;;;;;;;8.68;7.80;;;;;;;14.91;100.00;98606.87;2279670;77;20914;-81
2022/09/10 06:24:37;;;;;;;7.62;6.80;;;;;;;14.95;100.00;98610.34;2279819;77;20919;-80
2022/09/10 06:27:37;;;;;;;5.85;5.35;;;;;;;14.98;100.00;98600.67;2279100;78;20977;-82
2022/09/10 06:30:38;;;;;;;7.72;5.80;;;;;;;14.98;100.00;98606.37;2279589;78;21388;-82
2022/09/10 06:33:38;;;;;;;6.03;5.50;;;;;;;14.96;100.00;98606.83;2280417;78;20933;-81
2022/09/10 06:36:40;;;;;;;5.50;5.03;;;;;;;14.94;100.00;98608.60;2280370;78;20942;-82
2022/09/10 06:39:39;;;;;;;5.50;5.00;;;;;;;14.93;100.00;98609.05;2280935;78;20958;-82
2022/09/10 06:42:40;;;;;;;10.35;5.03;;;;;;;14.93;100.00;98610.36;2279973;78;21377;-80
2022/09/10 06:45:40;;;;;;;8.65;6.30;;;;;;;14.90;100.00;98599.88;2280678;78;20941;-81
2022/09/10 06:48:40;;;;;;;11.70;6.45;;;;;;;14.88;100.00;98596.83;2277482;78;20918;-81
2022/09/10 06:51:41;;;;;;;15.80;7.08;;;;;;;14.84;100.00;98588.11;2248009;78;20974;-81
2022/09/10 06:54:41;;;;;;;8.55;6.97;;;;;;;14.81;100.00;98589.89;2247515;78;20961;-81
2022/09/10 06:57:41;;;;;;;14.35;8.10;;;;;;;14.80;100.00;98590.77;2248565;78;20912;-81
2022/09/10 07:00:42;;;;;;;8.43;7.42;;;;;;;14.82;100.00;98591.63;2248529;78;20971;-82
2022/09/10 07:03:42;;;;;;;8.53;7.72;;;;;;;14.85;100.00;98592.48;2248453;78;21367;-82
2022/09/10 07:06:44;;;;;;;9.08;8.18;;;;;;;14.84;100.00;98584.16;2247992;78;20967;-83
2022/09/10 07:09:43;;;;;;;9.65;8.65;;;;;;;14.86;100.00;98585.02;2247770;78;20952;-82
2022/09/10 07:12:43;;;;;;;8.28;7.47;;;;;;;14.87;100.00;98581.51;2247953;79;21463;-81
2022/09/10 07:15:45;;;;;;;10.53;7.58;;;;;;;14.85;100.00;98581.09;2247770;78;20979;-82
2022/09/10 07:18:45;;;;;;;6.37;5.70;;;;;;;14.88;100.00;98583.25;2248182;79;20983;-82
2022/09/10 07:21:45;;;;;;;6.50;5.87;;;;;;;14.87;100.00;98576.25;2248354;78;21332;-82
2022/09/10 07:24:45;;;;;;;9.20;8.15;;;;;;;14.88;100.00;98571.87;2247738;78;21015;-83
2022/09/10 07:27:45;;;;;;;9.53;7.92;;;;;;;14.91;100.00;98570.52;2248116;78;20956;-83
2022/09/10 07:30:46;;;;;;;8.15;7.37;;;;;;;14.93;100.00;98566.13;2248050;79;20956;-84
2022/09/10 07:33:46;;;;;;;8.45;7.45;;;;;;;14.94;100.00;98559.98;2248108;78;20984;-83
2022/09/10 07:36:47;;;;;;;11.90;8.53;;;;;;;14.93;100.00;98569.63;2248201;78;20947;-84
2022/09/10 07:39:47;;;;;;;9.75;8.75;;;;;;;14.95;100.00;98570.92;2248848;78;20952;-84
2022/09/10 07:42:47;;;;;;;8.03;7.22;;;;;;;14.97;100.00;98572.65;2248050;78;21007;-81
2022/09/10 07:45:48;;;;;;;8.55;7.75;;;;;;;15.04;100.00;98572.58;2247637;78;20972;-83
2022/09/10 07:48:48;;;;;;;6.22;5.60;;;;;;;15.07;100.00;98568.16;2248201;77;20928;-84
2022/09/10 07:51:52;;;;;;;8.25;7.45;;;;;;;15.11;100.00;98568.56;2279760;78;21363;-82
2022/09/10 07:54:49;;;;;;;11.12;7.72;;;;;;;15.13;100.00;98567.23;2279753;77;20918;-83
2022/09/10 07:57:49;;;;;;;8.37;7.13;;;;;;;15.13;100.00;98564.16;2279120;78;20957;-81
2022/09/10 08:00:52;;;;;;;7.90;7.12;;;;;;;15.15;100.00;98574.66;2257712;78;20956;-81
2022/09/10 08:03:52;;;;;;;7.28;6.50;;;;;;;15.14;100.00;98576.41;2279360;78;20894;-81
2022/09/10 08:06:53;;;;;;;7.53;6.92;;;;;;;15.19;100.00;98575.92;2279487;77;20929;-81
2022/09/10 08:09:53;;;;;;;7.35;6.65;;;;;;;15.23;100.00;98584.64;2279511;78;21337;-83
2022/09/10 08:12:53;;;;;;;7.35;6.65;;;;;;;15.26;100.00;98584.61;2279793;78;20977;-82
2022/09/10 08:15:56;;;;;;;7.67;6.95;;;;;;;15.30;100.00;98591.58;2280482;78;20890;-82
2022/09/10 08:18:56;;;;;;;6.62;6.03;;;;;;;15.32;100.00;98596.82;2280873;78;21415;-83
2022/09/10 08:21:55;;;;;;;6.55;5.95;;;;;;;15.36;100.00;98597.21;2280924;78;20937;-83
2022/09/10 08:24:55;;;;;;;6.47;5.87;;;;;;;15.37;100.00;98597.64;2280204;78;20918;-82
2022/09/10 08:27:55;;;;;;;6.87;6.25;;;;;;;15.40;100.00;98594.98;2280055;78;20922;-82
2022/09/10 08:30:56;;;;;;;8.03;5.65;;;;;;;15.44;100.00;98595.37;2280195;78;21358;-82
2022/09/10 08:33:56;;;;;;;5.12;4.72;;;;;;;15.44;100.00;98594.05;2279968;77;20945;-82
2022/09/10 08:36:58;;;;;;;5.33;4.92;;;;;;;15.49;100.00;98594.42;2279710;78;20914;-82
2022/09/10 08:39:57;;;;;;;4.72;4.35;;;;;;;15.53;100.00;98596.57;2279938;78;20922;-82
2022/09/10 08:42:57;;;;;;;7.10;4.20;;;;;;;15.54;99.71;98598.31;2279600;78;21330;-84
2022/09/10 08:45:58;;;;;;;4.25;3.95;;;;;;;15.57;99.93;98593.02;2279492;77;20965;-83
2022/09/10 08:48:59;;;;;;;3.95;3.70;;;;;;;15.62;99.76;98593.90;2278539;77;20922;-82
2022/09/10 08:51:59;;;;;;;4.33;3.92;;;;;;;15.69;99.76;98585.03;2247178;78;20968;-82
2022/09/10 08:54:59;;;;;;;3.55;3.30;;;;;;;15.76;99.31;98587.14;2247723;79;20916;-82
2022/09/10 08:57:59;;;;;;;3.70;3.40;;;;;;;15.85;99.22;98585.70;2247152;78;20884;-82
2022/09/10 09:01:00;;;;;;;3.98;3.60;;;;;;;15.91;99.23;98583.86;2247439;78;20912;-82
2022/09/10 09:04:01;;;;;;;3.37;3.17;;;;;;;15.96;98.72;98578.53;2248300;79;20916;-82
2022/09/10 09:07:01;;;;;;;3.40;3.10;;;;;;;15.97;98.37;98582.91;2247730;78;20967;-83
2022/09/10 09:10:01;;;;;;;3.85;3.45;;;;;;;15.97;98.37;98588.62;2247743;78;20979;-81
2022/09/10 09:13:01;;;;;;;6.20;3.05;;;;;;;15.96;98.34;98589.06;2247111;79;20995;-81
2022/09/10 09:16:02;;;;;;;2.70;2.50;;;;;;;15.88;98.32;98586.53;2247303;79;20978;-80
2022/09/10 09:19:02;;;;;;;2.37;2.27;;;;;;;15.87;98.24;98591.82;2247471;78;21136;-81
2022/09/10 09:22:03;;;;;;;3.22;2.50;;;;;;;15.88;98.38;98589.17;2248147;79;20953;-81
2022/09/10 09:25:03;;;;;;;4.70;2.90;;;;;;;15.90;97.84;98584.75;2248051;78;20943;-80
2022/09/10 09:28:04;;;;;;;2.70;2.50;;;;;;;15.85;98.02;98585.27;2246972;78;20972;-82
2022/09/10 09:31:04;;;;;;;4.15;2.40;;;;;;;15.83;97.62;98587.48;2247076;78;20921;-83
2022/09/10 09:34:05;;;;;;;2.47;2.27;;;;;;;15.86;98.01;98587.45;2247518;78;20912;-82
2022/09/10 09:37:05;;;;;;;2.62;2.42;;;;;;;15.87;97.32;98583.48;2247753;78;20949;-81
2022/09/10 09:40:05;;;;;;;2.92;2.70;;;;;;;15.90;97.81;98583.44;2247882;78;21360;-81
2022/09/10 09:43:05;;;;;;;2.83;2.62;;;;;;;15.94;97.26;98581.63;2247779;79;20951;-82
2022/09/10 09:46:06;;;;;;;3.30;3.08;;;;;;;16.01;97.12;98581.10;2247749;78;20919;-80
2022/09/10 09:49:06;;;;;;;2.90;2.70;;;;;;;16.04;96.26;98579.30;2248052;78;20947;-81
2022/09/10 09:52:07;;;;;;;2.80;2.60;;;;;;;16.06;96.42;98575.33;2247802;77;21313;-81
2022/09/10 09:55:07;;;;;;;2.83;2.62;;;;;;;16.16;96.34;98575.61;2248165;78;21018;-81
2022/09/10 09:58:08;;;;;;;2.20;2.10;;;;;;;16.20;96.34;98569.41;2248499;78;20965;-81
2022/09/10 10:01:08;;;;;;;2.98;2.72;;;;;;;16.16;95.70;98570.34;2248588;78;21633;-82
2022/09/10 10:04:08;;;;;;;2.75;2.55;;;;;;;16.14;95.99;98566.42;2248280;78;21003;-81
2022/09/10 10:07:10;;;;;;;2.62;2.42;;;;;;;16.09;96.12;98572.65;2248747;78;20964;-82
2022/09/10 10:10:09;;;;;;;2.90;2.65;;;;;;;16.10;96.91;98567.80;2248789;78;20995;-81
2022/09/10 10:13:12;;;;;;;3.40;2.92;;;;;;;16.10;96.51;98569.99;2247888;78;21423;-81
2022/09/10 10:16:10;;;;;;;2.65;2.45;;;;;;;16.10;96.28;98567.80;2248427;78;20952;-82
2022/09/10 10:19:10;;;;;;;2.70;2.50;;;;;;;16.07;96.19;98567.85;2248398;78;20944;-82
2022/09/10 10:22:11;;;;;;;3.58;3.27;;;;;;;16.06;96.00;98566.11;2248133;78;20877;-82
2022/09/10 10:25:11;;;;;;;2.47;2.30;;;;;;;16.06;96.17;98560.84;2248373;78;20936;-82
2022/09/10 10:28:11;;;;;;;2.98;2.67;;;;;;;16.07;96.11;98560.82;2248086;79;20928;-81
2022/09/10 10:31:12;;;;;;;2.42;2.22;;;;;;;16.06;96.46;98556.45;2248827;78;20991;-83
2022/09/10 10:34:15;;;;;;;2.90;2.42;;;;;;;16.04;95.86;98550.78;2248766;78;20920;-82
2022/09/10 10:37:15;;;;;;;2.80;2.60;;;;;;;16.03;96.01;98557.81;2248156;78;21312;-81
2022/09/10 10:40:16;;;;;;;2.80;2.60;;;;;;;16.03;96.31;98554.31;2248057;79;20936;-81
2022/09/10 10:43:17;;;;;;;3.50;2.55;;;;;;;16.05;96.53;98557.79;2247406;79;21139;-82
2022/09/10 10:46:17;;;;;;;2.40;2.30;;;;;;;16.07;96.38;98559.95;2248189;78;20889;-82
2022/09/10 10:49:18;;;;;;;2.65;2.40;;;;;;;16.08;96.70;98563.01;2248240;78;21291;-82
2022/09/10 10:52:18;;;;;;;2.77;2.58;;;;;;;16.11;97.16;98556.38;2279015;77;20958;-80
2022/09/10 10:55:19;;;;;;;2.42;2.25;;;;;;;16.13;96.97;98559.41;2279463;78;20953;-81
2022/09/10 10:58:19;;;;;;;2.30;2.20;;;;;;;16.14;96.85;98555.02;2279709;78;20910;-81
2022/09/10 11:01:20;;;;;;;2.65;2.45;;;;;;;16.13;96.69;98562.49;2279840;78;20953;-82
2022/09/10 11:04:21;;;;;;;2.58;2.40;;;;;;;16.14;96.75;98557.20;2279471;78;20970;-81
2022/09/10 11:07:20;;;;;;;2.95;2.70;;;;;;;16.11;96.68;98558.56;2279560;78;20942;-83
2022/09/10 11:10:21;;;;;;;4.75;2.65;;;;;;;16.06;96.44;98551.63;2280029;78;20958;-80
2022/09/10 11:13:21;;;;;;;2.87;2.67;;;;;;;16.07;96.86;98557.32;2280053;78;21017;-82
2022/09/10 11:16:22;;;;;;;2.83;2.62;;;;;;;16.10;96.31;98550.69;2280732;77;20950;-82
2022/09/10 11:19:22;;;;;;;3.17;2.90;;;;;;;16.11;96.58;98555.94;2279580;77;21369;-81
2022/09/10 11:22:22;;;;;;;3.10;2.90;;;;;;;16.16;96.65;98556.73;2279283;78;20922;-81
2022/09/10 11:25:23;;;;;;;3.58;3.27;;;;;;;16.20;96.37;98558.43;2279798;78;20978;-81
2022/09/10 11:28:23;;;;;;;4.03;3.08;;;;;;;16.27;95.95;98558.33;2279979;78;20946;-82
2022/09/10 11:31:23;;;;;;;3.15;2.95;;;;;;;16.29;95.97;98549.52;2279662;78;20957;-81
2022/09/10 11:34:24;;;;;;;3.25;2.95;;;;;;;16.37;96.38;98541.05;2280014;78;20981;-82
2022/09/10 11:37:24;;;;;;;3.47;2.83;;;;;;;16.48;96.37;98541.77;2280590;78;20975;-83
2022/09/10 11:40:25;;;;;;;3.37;3.17;;;;;;;16.61;95.63;98538.92;2280885;78;21354;-81
2022/09/10 11:43:25;;;;;;;3.42;3.20;;;;;;;16.84;95.79;98540.74;2280699;78;21004;-81
2022/09/10 11:46:25;;;;;;;3.90;3.58;;;;;;;17.00;94.30;98536.92;2280657;78;20935;-83
2022/09/10 11:49:26;;;;;;;3.85;3.55;;;;;;;17.18;93.68;98538.34;2281094;78;20972;-82
2022/09/10 11:52:26;;;;;;;3.95;3.65;;;;;;;17.40;93.48;98532.22;2249780;78;21364;-80
2022/09/10 11:55:27;;;;;;;3.72;3.42;;;;;;;17.60;92.99;98530.03;2248510;78;20955;-80
2022/09/10 11:58:29;;;;;;;3.45;3.15;;;;;;;17.77;92.07;98526.61;2248849;79;20947;-81
2022/09/10 12:01:27;;;;;;;4.05;3.70;;;;;;;17.85;90.94;98533.48;2249238;78;20908;-82
2022/09/10 12:04:34;;;;;;;3.77;3.47;;;;;;;17.88;89.99;98529.46;2248828;79;20926;-81
2022/09/10 12:07:34;;;;;;;4.22;3.72;;;;;;;17.97;89.91;98523.97;2248926;78;20975;-82
2022/09/10 12:10:34;;;;;;;6.55;4.35;;;;;;;18.13;89.58;98522.70;2248112;79;20920;-81
2022/09/10 12:13:35;;;;;;;3.37;3.10;;;;;;;18.27;88.49;98520.64;2248474;78;21342;-82
2022/09/10 12:16:35;;;;;;;3.65;3.02;;;;;;;18.37;87.84;98518.19;2249003;78;20966;-80
2022/09/10 12:19:36;;;;;;;3.45;3.15;;;;;;;18.43;86.93;98520.68;2248669;78;21004;-81
2022/09/10 12:22:36;;;;;;;4.35;2.80;;;;;;;18.54;86.65;98511.61;2249117;79;20967;-80
2022/09/10 12:25:37;;;;;;;3.22;2.92;;;;;;;18.71;86.04;98505.47;2249198;78;20940;-77
2022/09/10 12:28:37;;;;;;;2.83;2.62;;;;;;;18.83;84.74;98495.89;2249156;78;20889;-82
2022/09/10 12:31:38;;;;;;;3.58;2.52;;;;;;;18.96;84.58;98490.68;2249032;78;21309;-82
2022/09/10 12:34:38;;;;;;;3.00;2.58;;;;;;;18.98;83.29;98487.53;2249039;79;20936;-81
2022/09/10 12:37:38;;;;;;;3.42;3.12;;;;;;;19.04;82.49;98487.83;2249055;78;20912;-81
2022/09/10 12:40:38;;;;;;;3.50;3.12;;;;;;;19.07;81.64;98482.03;2248820;78;20960;-80
2022/09/10 12:43:39;;;;;;;3.83;2.95;;;;;;;19.15;81.40;98479.16;2249023;78;20964;-81
2022/09/10 12:46:39;;;;;;;3.05;2.85;;;;;;;19.26;81.99;98477.53;2249156;78;20944;-80
2022/09/10 12:49:40;;;;;;;3.50;3.20;;;;;;;19.34;80.43;98472.89;2248967;78;20909;-80
2022/09/10 12:52:40;;;;;;;3.55;3.25;;;;;;;19.45;80.55;98474.76;2278511;77;20950;-81
2022/09/10 12:55:41;;;;;;;3.00;2.80;;;;;;;19.57;80.66;98473.56;2281455;78;20993;-83
2022/09/10 12:58:41;;;;;;;3.60;3.25;;;;;;;19.70;79.59;98470.48;2281136;78;21309;-80
2022/09/10 13:01:41;;;;;;;3.20;2.90;;;;;;;19.86;77.62;98466.04;2280949;78;21001;-80
2022/09/10 13:04:46;;;;;;;3.15;2.95;;;;;;;19.97;76.91;98465.27;2281300;77;20949;-80
2022/09/10 13:07:43;;;;;;;2.87;2.67;;;;;;;20.09;76.82;98462.23;2281057;78;20950;-81
2022/09/10 13:10:43;;;;;;;3.20;3.00;;;;;;;20.02;75.60;98462.02;2281143;78;20962;-80
2022/09/10 13:13:43;;;;;;;2.70;2.50;;;;;;;20.04;75.26;98462.37;2281379;78;20997;-82
2022/09/10 13:16:43;;;;;;;3.15;2.80;;;;;;;20.09;75.76;98456.93;2280982;78;21381;-81
2022/09/10 13:19:44;;;;;;;2.98;2.77;;;;;;;20.38;75.77;98450.66;2281138;78;20962;-82
2022/09/10 13:22:45;;;;;;;3.12;2.85;;;;;;;20.70;75.01;98443.41;2281158;78;20945;-84
2022/09/10 13:25:45;;;;;;;3.25;2.87;;;;;;;20.96;72.55;98434.96;2281516;78;20950;-83
2022/09/10 13:28:45;;;;;;;2.77;2.62;;;;;;;21.19;72.08;98427.94;2281342;78;21326;-83
2022/09/10 13:31:46;;;;;;;2.90;2.70;;;;;;;21.38;70.91;98432.12;2281052;78;20941;-81
2022/09/10 13:34:46;;;;;;;2.58;2.37;;;;;;;21.58;70.55;98419.80;2281467;78;20996;-82
2022/09/10 13:37:46;;;;;;;2.70;2.55;;;;;;;21.80;69.92;98407.89;2281663;78;21321;-86
2022/09/10 13:40:47;;;;;;;3.00;2.80;;;;;;;21.76;68.30;98409.41;2281555;78;20934;-83
2022/09/10 13:43:47;;;;;;;2.72;2.52;;;;;;;21.87;68.99;98397.88;2281813;78;20981;-84
2022/09/10 13:46:47;;;;;;;2.42;2.22;;;;;;;21.92;68.29;98396.77;2282073;78;20942;-84
2022/09/10 13:49:49;;;;;;;2.90;2.70;;;;;;;21.77;67.77;98396.53;2282150;78;20930;-83
2022/09/10 13:52:48;;;;;;;2.85;2.65;;;;;;;21.71;68.31;98396.77;2291721;77;21011;-83
2022/09/10 13:55:49;;;;;;;2.65;2.45;;;;;;;21.71;67.83;98396.77;2291922;78;20933;-84
2022/09/10 13:58:49;;;;;;;3.35;3.08;;;;;;;21.58;67.52;98398.55;2291579;78;21281;-84